Terminal Aerodrome Forecast
Issued by NWS North Platte, NE

Home | Current Version | Previous Version | Text Only | Print | Product List | Glossary On
Versions: 1 2 3 4 5 6 7 8 9 10 11 12 13 14 15 16 17 18 19
000
FTUS43 KLBF 041120
TAFLBF
TAF
KLBF 041120Z 0412/0512 09006KT P6SM BKN012
      TEMPO 0412/0414 1SM BR OVC002
     FM041400 14010KT P6SM SCT012 BKN070
     FM041800 15011KT P6SM BKN070 BKN250
      TEMPO 0418/0421 P6SM -TSRA BKN070CB
     FM042100 17007KT 3SM TSRA BKN030CB OVC070
     FM050000 13006KT P6SM VCTS BKN070CB OVC250=

USA.gov is the U.S. government's official web portal to all federal, state and local government web resources and services.